»·PEaware :: N149CD KVNY-KSAN

N149CD :: KVNY-KSAN

FLIGHT INFORMATION

Flight Status: Arrived
Operator: Privately registered:
United States
More flights under this callsign
Pilot: Nathan E. (30132)
Aircraft: CIRRUS SR-22
(SR22)
More flights by this aircraft type
Origin: KVNY Van Nuys
United States
Destination: KSAN San Diego Intl-Lindbergh
United States
More flights between these airports :: More routes between these airports
Route: ADAMM3 ADAMM V186 HAILE V66 MZB
File this flight plan on PilotEdge
Remarks: TEC route BURP29
Altitude:
(Current/Filed)
9,000ft
Speed:
(Current/Filed)
170kts
Departed: 06-Jan-21 04:37 PM
Arrived: 06-Jan-21 05:36 PM
Distance/Time
Traveled:
110nm/0:59
Distance/Time
To Go:
Arrived

Flight Plot

Page will automatically refresh every two minutes.

Flight plan parsing failed; only flown route is shown


Map Options




Map Legend


Flown Route
Filed Route
Departure Airport
Arrival Airport
Navaid (VOR, NDB)
Fix

Horizontal Profiles

Position Reports

Time Latitude Longitude Heading Altitude Ground
Speed
06-Jan-21 16:11 34.208083 -118.491770 90 804ft 0kts
06-Jan-21 16:12 34.208083 -118.491770 90 804ft 0kts
06-Jan-21 16:13 34.208083 -118.491770 90 804ft 0kts
06-Jan-21 16:14 34.208083 -118.491770 91 804ft 0kts
06-Jan-21 16:15 34.208083 -118.491770 91 804ft 0kts
06-Jan-21 16:16 34.208083 -118.491770 91 804ft 0kts
06-Jan-21 16:17 34.208083 -118.491770 91 804ft 0kts
06-Jan-21 16:18 34.208083 -118.491770 91 804ft 0kts
06-Jan-21 16:19 34.208083 -118.491770 91 804ft 0kts
06-Jan-21 16:20 34.208083 -118.491770 91 804ft 0kts
06-Jan-21 16:21 34.208083 -118.491770 91 804ft 0kts
06-Jan-21 16:22 34.208083 -118.491770 91 804ft 0kts
06-Jan-21 16:23 34.208083 -118.491770 91 804ft 0kts
06-Jan-21 16:24 34.208083 -118.491770 91 804ft 0kts
06-Jan-21 16:25 34.208083 -118.491770 91 804ft 0kts
06-Jan-21 16:26 34.208083 -118.491770 90 804ft 0kts
06-Jan-21 16:27 34.208083 -118.491770 90 804ft 0kts
06-Jan-21 16:28 34.209712 -118.491530 355 804ft 12kts
06-Jan-21 16:29 34.213344 -118.491877 355 804ft 14kts
06-Jan-21 16:30 34.217604 -118.492287 356 804ft 15kts
06-Jan-21 16:31 34.219027 -118.492159 99 804ft 0kts
06-Jan-21 16:32 34.219027 -118.492159 99 804ft 0kts
06-Jan-21 16:33 34.219027 -118.492159 99 804ft 0kts
06-Jan-21 16:34 34.219027 -118.492159 99 804ft 0kts
06-Jan-21 16:35 34.218988 -118.491985 113 804ft 6kts
06-Jan-21 16:36 34.208717 -118.490280 172 942ft 99kts
06-Jan-21 16:37 34.177001 -118.485320 136 2038ft 120kts
06-Jan-21 16:38 34.158029 -118.451245 125 3280ft 124kts
06-Jan-21 16:39 34.139100 -118.415421 125 4392ft 128kts
06-Jan-21 16:40 34.119820 -118.378290 125 5267ft 134kts
06-Jan-21 16:41 34.100229 -118.339164 105 6224ft 140kts
06-Jan-21 16:42 34.092633 -118.291933 101 7043ft 145kts
06-Jan-21 16:43 34.084946 -118.243168 100 7756ft 149kts
06-Jan-21 16:44 34.077073 -118.193253 99 8394ft 151kts
06-Jan-21 16:45 34.069140 -118.143027 98 8983ft 153kts
06-Jan-21 16:46 34.060478 -118.088257 98 9007ft 174kts
06-Jan-21 16:47 34.051339 -118.030861 98 9004ft 174kts
06-Jan-21 16:48 34.042122 -117.973075 98 9006ft 175kts
06-Jan-21 16:49 34.032901 -117.915440 98 9009ft 174kts
06-Jan-21 16:50 34.023713 -117.858172 98 9011ft 174kts
06-Jan-21 16:51 34.012298 -117.801312 108 9003ft 174kts
06-Jan-21 16:52 33.994640 -117.746327 111 9001ft 175kts
06-Jan-21 16:53 33.975580 -117.692165 110 9000ft 175kts
06-Jan-21 16:54 33.956433 -117.637841 110 9001ft 175kts
06-Jan-21 16:55 33.937339 -117.583737 109 9002ft 174kts
06-Jan-21 16:56 33.917638 -117.530278 129 8981ft 176kts
06-Jan-21 16:57 33.877823 -117.495946 144 8999ft 175kts
06-Jan-21 16:58 33.837465 -117.462131 144 8999ft 175kts
06-Jan-21 16:59 33.797185 -117.428399 144 9000ft 175kts
06-Jan-21 17:00 33.756847 -117.394656 144 9000ft 175kts
06-Jan-21 17:01 33.717538 -117.361787 144 9002ft 175kts
06-Jan-21 17:02 33.686837 -117.336151 145 9002ft 174kts
06-Jan-21 17:03 33.646469 -117.302500 146 9003ft 173kts
06-Jan-21 17:04 33.606502 -117.269223 147 9004ft 173kts
06-Jan-21 17:06 33.566988 -117.236370 147 9004ft 172kts
06-Jan-21 17:07 33.527523 -117.203580 147 9005ft 172kts
06-Jan-21 17:08 33.487701 -117.170530 147 9006ft 172kts
06-Jan-21 17:09 33.443282 -117.154255 173 9008ft 168kts
06-Jan-21 17:10 33.397289 -117.143485 166 9010ft 170kts
06-Jan-21 17:11 33.351625 -117.126800 164 8982ft 171kts
06-Jan-21 17:12 33.306072 -117.109787 164 8981ft 170kts
06-Jan-21 17:13 33.260791 -117.092822 163 8983ft 170kts
06-Jan-21 17:14 33.215505 -117.075868 163 8983ft 170kts
06-Jan-21 17:15 33.170126 -117.058906 163 8983ft 170kts
06-Jan-21 17:16 33.121505 -117.040761 164 8264ft 191kts
06-Jan-21 17:17 33.070363 -117.021689 163 7477ft 192kts
06-Jan-21 17:18 33.019572 -117.002767 163 6682ft 190kts
06-Jan-21 17:18 32.976431 -116.986711 163 6037ft 197kts
06-Jan-21 17:20 32.915689 -116.964132 163 5114ft 194kts
06-Jan-21 17:21 32.869332 -116.946907 163 4979ft 159kts
06-Jan-21 17:21 32.835057 -116.934191 164 4987ft 152kts
06-Jan-21 17:23 32.788441 -116.916917 164 4990ft 149kts
06-Jan-21 17:23 32.755619 -116.904761 164 4981ft 141kts
06-Jan-21 17:24 32.720920 -116.891928 164 4983ft 123kts
06-Jan-21 17:26 32.686460 -116.890384 245 4981ft 107kts
06-Jan-21 17:26 32.676402 -116.920288 251 4281ft 118kts
06-Jan-21 17:27 32.676637 -116.954974 283 3990ft 105kts
06-Jan-21 17:28 32.684934 -116.989835 284 3590ft 106kts
06-Jan-21 17:29 32.693370 -117.024495 286 3066ft 107kts
06-Jan-21 17:30 32.701588 -117.058122 286 2442ft 102kts
06-Jan-21 17:31 32.709518 -117.090637 286 1841ft 105kts
06-Jan-21 17:32 32.717786 -117.124640 286 1229ft 100kts
06-Jan-21 17:33 32.725147 -117.154964 286 612ft 88kts
06-Jan-21 17:34 32.731489 -117.181222 287 34ft 75kts
06-Jan-21 17:35 32.733989 -117.188129 14 20ft 2kts
06-Jan-21 17:36 32.734001 -117.188125 20 20ft 0kts
06-Jan-21 17:37 32.734001 -117.188125 20 20ft 0kts
06-Jan-21 17:38 32.733614 -117.185185 106 20ft 10kts
06-Jan-21 17:39 32.732765 -117.181658 105 20ft 11kts
06-Jan-21 17:40 32.733319 -117.178903 35 20ft 7kts

Navigation Log

Ident Type
Flight plan parsing failed, navigation log unavailable